Time;durP1;ratioP1;P1;durP2;ratioP2;P2;SDS_P1;SDS_P2;PMS_P1;PMS_P2;Temp;Humidity;BMP_temperature;BMP_pressure;BME280_temperature;BME280_humidity;BME280_pressure;Samples;Min_cycle;Max_cycle;Signal;HPM_P1;HPM_P2
2023/08/01 00:00:57;;;;;;;0.10;0.00;;;;;;;18.88;100.00;98954.28;8366716;28;20039;-59
2023/08/01 00:04:57;;;;;;;0.32;0.00;;;;;;;18.92;100.00;98941.81;8349326;28;20052;-59
2023/08/01 00:08:58;;;;;;;1.58;0.30;;;;;;;18.91;100.00;98962.03;8368276;28;20137;-58
2023/08/01 00:12:58;;;;;;;2.28;0.25;;;;;;;18.93;100.00;98948.94;8362817;28;20029;-58
2023/08/01 00:16:58;;;;;;;0.75;0.00;;;;;;;19.00;100.00;98955.16;8366710;28;20083;-58
2023/08/01 00:20:59;;;;;;;5.97;2.17;;;;;;;18.99;100.00;98941.69;8368687;28;20028;-59
2023/08/01 00:24:59;;;;;;;0.00;0.00;;;;;;;18.98;100.00;98929.09;8367925;28;20095;-59
2023/08/01 00:29:00;;;;;;;0.43;0.10;;;;;;;19.03;100.00;98938.25;8367564;28;20066;-61
2023/08/01 00:33:01;;;;;;;1.42;0.00;;;;;;;19.00;100.00;98930.50;8365355;28;20082;-60
2023/08/01 00:37:01;;;;;;;2.60;0.03;;;;;;;18.93;100.00;98913.34;8365088;28;20486;-60
2023/08/01 00:41:01;;;;;;;0.80;0.10;;;;;;;18.92;100.00;98908.94;8366053;28;20040;-60
2023/08/01 00:45:02;;;;;;;0.68;0.00;;;;;;;19.02;100.00;98919.31;8366340;28;20044;-60
2023/08/01 00:49:03;;;;;;;0.10;0.00;;;;;;;18.91;100.00;98901.78;8366688;28;20040;-60
2023/08/01 00:53:04;;;;;;;0.52;0.03;;;;;;;18.92;100.00;98905.34;8368736;28;20036;-60
2023/08/01 00:57:05;;;;;;;0.00;0.00;;;;;;;18.88;100.00;98902.25;8371304;28;20033;-60
2023/08/01 01:01:05;;;;;;;5.88;0.88;;;;;;;18.86;100.00;98885.22;8370024;28;20300;-60
2023/08/01 01:05:06;;;;;;;1.17;0.00;;;;;;;19.01;100.00;98877.41;8368577;28;20136;-57
2023/08/01 01:09:15;;;;;;;2.35;0.10;;;;;;;19.08;100.00;98886.34;8373293;28;20051;-59
2023/08/01 01:13:15;;;;;;;0.77;0.00;;;;;;;19.12;100.00;98881.25;8369030;28;20126;-61
2023/08/01 01:17:16;;;;;;;0.20;0.00;;;;;;;19.21;100.00;98868.84;8371674;28;20040;-60
2023/08/01 01:21:17;;;;;;;0.10;0.10;;;;;;;19.29;100.00;98888.59;8373252;28;20063;-59
2023/08/01 01:25:19;;;;;;;1.55;0.10;;;;;;;19.07;100.00;98894.81;8373131;28;20040;-59
2023/08/01 01:29:23;;;;;;;0.22;0.10;;;;;;;18.86;100.00;98893.44;8371787;28;20493;-60
2023/08/01 01:33:24;;;;;;;0.28;0.20;;;;;;;18.76;100.00;98862.22;8371373;28;20471;-60
2023/08/01 01:37:24;;;;;;;1.20;0.20;;;;;;;18.64;100.00;98875.88;8372850;28;20105;-60
2023/08/01 01:41:25;;;;;;;1.00;0.25;;;;;;;18.56;100.00;98870.72;8370937;28;20043;-61
2023/08/01 01:45:26;;;;;;;0.82;0.28;;;;;;;18.55;100.00;98869.03;8371007;28;20494;-60
2023/08/01 01:49:26;;;;;;;0.15;0.15;;;;;;;18.52;100.00;98872.25;8373262;28;20121;-59
2023/08/01 01:53:27;;;;;;;0.40;0.20;;;;;;;18.49;100.00;98880.91;8373561;28;20127;-60
2023/08/01 01:57:27;;;;;;;2.05;0.28;;;;;;;18.48;100.00;98890.16;8372421;28;20090;-60
2023/08/01 02:01:28;;;;;;;1.77;0.30;;;;;;;18.51;100.00;98888.91;8367911;28;20033;-58
2023/08/01 02:05:29;;;;;;;3.85;0.40;;;;;;;18.45;100.00;98889.81;8373251;28;20162;-58
2023/08/01 02:09:29;;;;;;;1.98;0.50;;;;;;;18.43;100.00;98891.94;8367924;28;20039;-58
2023/08/01 02:13:32;;;;;;;0.85;0.50;;;;;;;18.30;100.00;98903.03;8371326;28;20039;-58
2023/08/01 02:17:32;;;;;;;0.82;0.40;;;;;;;18.21;100.00;98891.53;8370765;28;20118;-59
2023/08/01 02:21:33;;;;;;;2.50;0.40;;;;;;;18.07;100.00;98886.47;8372959;28;20036;-59
2023/08/01 02:25:39;;;;;;;0.98;0.43;;;;;;;18.01;100.00;98885.47;8371957;28;20123;-60
2023/08/01 02:29:40;;;;;;;0.40;0.30;;;;;;;17.99;100.00;98892.25;8373076;28;20053;-59
2023/08/01 02:33:40;;;;;;;0.65;0.40;;;;;;;17.97;100.00;98878.81;8373177;28;20618;-59
2023/08/01 02:37:41;;;;;;;2.33;0.50;;;;;;;17.92;100.00;98889.56;8376327;28;20170;-60
2023/08/01 02:41:41;;;;;;;0.70;0.50;;;;;;;17.97;100.00;98897.94;8377129;28;20044;-57
2023/08/01 02:45:42;;;;;;;2.92;0.60;;;;;;;17.91;100.00;98907.06;8376743;28;20048;-58
2023/08/01 02:49:42;;;;;;;0.60;0.35;;;;;;;17.96;100.00;98896.25;8378207;28;20037;-57
2023/08/01 02:53:43;;;;;;;4.13;0.60;;;;;;;17.92;100.00;98900.50;8377413;28;20505;-57
2023/08/01 02:57:43;;;;;;;2.17;0.60;;;;;;;17.93;100.00;98902.16;8378512;28;20094;-57
2023/08/01 03:01:44;;;;;;;14.15;1.13;;;;;;;17.94;100.00;98923.00;8356428;28;20477;-57
2023/08/01 03:05:44;;;;;;;2.22;0.60;;;;;;;17.92;100.00;98911.44;8376878;28;20063;-57
2023/08/01 03:09:45;;;;;;;3.92;0.93;;;;;;;17.92;100.00;98924.28;8376427;28;20547;-58
2023/08/01 03:13:46;;;;;;;1.35;0.73;;;;;;;17.95;100.00;98927.41;8375453;28;20621;-57
2023/08/01 03:17:47;;;;;;;7.28;1.58;;;;;;;17.95;100.00;98930.13;8374562;28;20116;-57
2023/08/01 03:21:48;;;;;;;5.07;0.90;;;;;;;17.75;100.00;98937.69;8375017;28;20032;-58
2023/08/01 03:25:48;;;;;;;2.85;0.80;;;;;;;17.78;100.00;98941.88;8376352;28;20554;-57
2023/08/01 03:29:50;;;;;;;4.20;1.20;;;;;;;17.78;100.00;98937.25;8373942;28;20040;-59
2023/08/01 03:33:50;;;;;;;1.63;1.00;;;;;;;17.80;100.00;98940.59;8375917;28;20045;-57
2023/08/01 03:37:51;;;;;;;1.70;1.20;;;;;;;17.83;100.00;98944.75;8375306;28;20041;-58
2023/08/01 03:41:51;;;;;;;3.85;1.75;;;;;;;17.77;100.00;98941.03;8374074;28;20060;-57
2023/08/01 03:45:52;;;;;;;2.00;1.40;;;;;;;17.77;100.00;98960.19;8373439;28;20124;-61
2023/08/01 03:49:52;;;;;;;3.17;2.40;;;;;;;17.74;100.00;98957.91;8376378;28;20036;-59
2023/08/01 03:53:53;;;;;;;5.88;2.70;;;;;;;17.67;100.00;98951.66;8375853;28;20067;-59
2023/08/01 03:57:53;;;;;;;6.07;2.83;;;;;;;17.63;100.00;98950.44;8374550;28;20040;-59
2023/08/01 04:01:53;;;;;;;6.68;3.38;;;;;;;17.62;100.00;98954.22;8353363;28;20518;-58
2023/08/01 04:05:56;;;;;;;4.70;2.60;;;;;;;17.58;100.00;98958.47;8367269;28;20045;-57
2023/08/01 04:09:56;;;;;;;7.40;3.70;;;;;;;17.56;100.00;98963.31;8376189;28;20032;-59
2023/08/01 04:13:56;;;;;;;6.45;3.15;;;;;;;17.66;100.00;98962.81;8369243;28;20498;-59
2023/08/01 04:17:57;;;;;;;5.10;3.10;;;;;;;17.64;100.00;98963.03;8362636;28;20121;-59
2023/08/01 04:21:57;;;;;;;8.20;2.90;;;;;;;17.59;100.00;98965.59;8372510;28;20076;-58
2023/08/01 04:25:59;;;;;;;6.95;3.65;;;;;;;17.59;100.00;98971.06;8382097;28;20036;-59
2023/08/01 04:30:00;;;;;;;8.13;3.47;;;;;;;17.56;100.00;98966.03;8371636;28;20128;-58
2023/08/01 04:34:00;;;;;;;5.97;3.22;;;;;;;17.63;100.00;98977.78;8373423;28;20040;-57
2023/08/01 04:38:01;;;;;;;6.07;3.50;;;;;;;17.68;100.00;98975.19;8374565;28;20048;-56
2023/08/01 04:42:01;;;;;;;7.82;3.88;;;;;;;17.70;100.00;98973.06;8374698;28;20040;-57
2023/08/01 04:46:02;;;;;;;10.90;3.30;;;;;;;17.63;100.00;98978.59;8371300;28;20538;-56
2023/08/01 04:50:02;;;;;;;7.88;3.85;;;;;;;17.59;100.00;98990.19;8373943;28;20041;-57
2023/08/01 04:54:03;;;;;;;5.32;3.28;;;;;;;17.60;100.00;99002.81;8373650;28;20062;-57
2023/08/01 04:58:03;;;;;;;7.35;4.13;;;;;;;17.52;100.00;98989.41;8372026;28;20048;-57
2023/08/01 05:02:04;;;;;;;10.38;4.10;;;;;;;17.49;100.00;98993.44;8368857;28;20132;-58
2023/08/01 05:06:04;;;;;;;7.22;3.83;;;;;;;17.49;100.00;98987.13;8372044;28;20048;-58
2023/08/01 05:10:05;;;;;;;6.80;3.92;;;;;;;17.54;100.00;98973.63;8354669;28;20401;-59
2023/08/01 05:14:05;;;;;;;16.48;3.97;;;;;;;17.51;100.00;98974.09;8359772;28;20044;-57
2023/08/01 05:18:06;;;;;;;5.35;3.15;;;;;;;17.51;100.00;98974.09;8368052;28;20041;-56
2023/08/01 05:22:06;;;;;;;8.23;3.47;;;;;;;17.48;100.00;98980.00;8368400;28;21022;-58
2023/08/01 05:26:07;;;;;;;7.53;2.97;;;;;;;17.37;100.00;98988.84;8371422;28;20049;-58
2023/08/01 05:30:08;;;;;;;8.25;3.67;;;;;;;17.47;100.00;98997.44;8370169;28;20549;-58
2023/08/01 05:34:08;;;;;;;17.40;4.55;;;;;;;17.54;100.00;99000.97;8372302;28;20048;-57
2023/08/01 05:38:09;;;;;;;7.07;2.83;;;;;;;17.70;100.00;99005.88;8368997;28;20051;-58
2023/08/01 05:42:09;;;;;;;7.07;3.10;;;;;;;17.85;100.00;99016.47;8370224;28;20040;-58
2023/08/01 05:46:10;;;;;;;9.20;3.53;;;;;;;18.14;100.00;99021.25;8368566;28;20072;-58
2023/08/01 05:50:10;;;;;;;7.78;3.28;;;;;;;18.33;100.00;99028.44;8369242;28;20466;-57
2023/08/01 05:54:11;;;;;;;8.43;4.03;;;;;;;18.31;100.00;99034.13;8365183;28;20459;-57
2023/08/01 05:58:11;;;;;;;14.35;3.88;;;;;;;18.26;100.00;99031.22;8368336;28;20049;-57
2023/08/01 06:02:12;;;;;;;6.85;3.35;;;;;;;18.21;100.00;99033.78;8369908;28;20091;-58
2023/08/01 06:06:12;;;;;;;7.15;3.55;;;;;;;18.35;100.00;99035.34;8375100;28;20045;-57
2023/08/01 06:10:13;;;;;;;7.80;3.47;;;;;;;18.36;100.00;99031.53;8377180;28;20104;-58
2023/08/01 06:14:13;;;;;;;9.05;3.50;;;;;;;18.62;100.00;99044.13;8373614;28;20037;-57
2023/08/01 06:18:14;;;;;;;17.30;3.83;;;;;;;18.73;100.00;99041.47;8373720;28;20250;-57
2023/08/01 06:22:14;;;;;;;10.43;3.65;;;;;;;18.81;100.00;99032.09;8376358;28;20510;-57
2023/08/01 06:26:15;;;;;;;8.73;3.88;;;;;;;18.67;100.00;99034.16;8377099;28;20056;-58
2023/08/01 06:30:15;;;;;;;7.28;3.20;;;;;;;18.72;100.00;99034.31;8372881;28;20036;-58
2023/08/01 06:34:16;;;;;;;11.65;3.47;;;;;;;18.65;100.00;99036.31;8373441;28;20604;-59
2023/08/01 06:38:16;;;;;;;5.32;3.80;;;;;;;18.67;100.00;99031.41;8374192;28;20148;-57
2023/08/01 06:42:17;;;;;;;11.25;3.90;;;;;;;18.78;100.00;99047.09;8357971;28;20477;-57
2023/08/01 06:46:17;;;;;;;9.43;3.88;;;;;;;18.78;100.00;99038.88;8364100;28;20397;-59
2023/08/01 06:50:18;;;;;;;7.18;3.97;;;;;;;18.93;100.00;99044.81;8344417;28;20097;-60
2023/08/01 06:54:18;;;;;;;8.10;4.03;;;;;;;19.08;100.00;99042.50;8351843;28;20048;-59
2023/08/01 06:58:19;;;;;;;10.00;4.28;;;;;;;19.07;100.00;99040.84;8371071;28;20048;-59
2023/08/01 07:02:19;;;;;;;7.72;3.53;;;;;;;19.17;100.00;99038.38;8373617;28;20036;-58
2023/08/01 07:06:20;;;;;;;7.63;4.40;;;;;;;19.77;100.00;99046.59;8370887;28;20450;-60
2023/08/01 07:10:20;;;;;;;12.10;3.95;;;;;;;19.51;99.36;99028.63;8355360;28;20041;-59
2023/08/01 07:14:21;;;;;;;7.63;3.70;;;;;;;19.42;100.00;99055.56;8370309;28;20064;-61
2023/08/01 07:18:22;;;;;;;10.05;3.28;;;;;;;19.30;99.91;99062.88;8370586;28;20501;-60
2023/08/01 07:22:22;;;;;;;6.30;3.10;;;;;;;19.15;100.00;99054.22;8369218;28;20105;-59
2023/08/01 07:26:22;;;;;;;8.43;3.28;;;;;;;19.06;100.00;99058.34;8369468;28;20045;-59
2023/08/01 07:30:23;;;;;;;10.98;3.60;;;;;;;19.10;100.00;99061.47;8365889;28;20148;-58
2023/08/01 07:34:24;;;;;;;8.18;3.25;;;;;;;19.03;100.00;99061.53;8370207;28;20056;-59
2023/08/01 07:38:26;;;;;;;9.90;3.55;;;;;;;19.29;100.00;99069.44;8369573;28;20140;-59
2023/08/01 07:42:27;;;;;;;12.93;4.32;;;;;;;19.65;98.07;99079.47;8365986;28;20584;-56
2023/08/01 07:46:27;;;;;;;8.80;3.85;;;;;;;19.65;93.77;99079.47;8352975;28;20448;-58
2023/08/01 07:50:28;;;;;;;13.05;4.88;;;;;;;19.59;94.06;99085.91;8365506;28;20048;-58
2023/08/01 07:54:28;;;;;;;11.77;4.72;;;;;;;19.47;94.67;99090.50;8371137;28;20037;-58
2023/08/01 07:58:29;;;;;;;66.95;10.48;;;;;;;19.51;94.98;99088.13;8369225;28;20028;-60
2023/08/01 08:02:30;;;;;;;10.20;4.03;;;;;;;19.60;93.82;99092.22;8363276;28;20140;-60
2023/08/01 08:06:31;;;;;;;16.27;5.07;;;;;;;19.61;94.15;99096.63;8366683;28;20033;-60
2023/08/01 08:10:32;;;;;;;48.70;8.98;;;;;;;20.11;92.15;99092.44;8360203;28;20124;-60
2023/08/01 08:14:32;;;;;;;9.20;3.78;;;;;;;20.23;91.62;99096.09;8368236;28;20037;-60
2023/08/01 08:18:32;;;;;;;12.13;4.35;;;;;;;20.18;88.59;99096.78;8365215;28;20094;-60
2023/08/01 08:22:33;;;;;;;754.70;107.78;;;;;;;20.18;88.49;99095.94;8368142;28;20036;-61
2023/08/01 08:26:37;;;;;;;529.75;73.25;;;;;;;20.48;86.31;99083.81;8368382;28;20090;-61
2023/08/01 08:30:37;;;;;;;195.02;24.73;;;;;;;21.04;86.32;99097.75;8363149;28;20337;-59
2023/08/01 08:34:39;;;;;;;11.02;3.03;;;;;;;21.20;84.71;99090.66;8350192;28;20036;-59
2023/08/01 08:38:40;;;;;;;9.18;2.80;;;;;;;21.13;82.86;99095.44;8347938;28;20067;-59
2023/08/01 08:42:42;;;;;;;11.15;2.78;;;;;;;21.15;82.91;99098.81;8368083;28;20037;-59
2023/08/01 08:46:44;;;;;;;7.30;2.78;;;;;;;20.94;84.17;99081.03;8364895;28;20060;-60
2023/08/01 08:50:45;;;;;;;5.97;2.97;;;;;;;20.99;84.53;99094.06;8363701;28;20047;-60
2023/08/01 08:54:47;;;;;;;8.05;3.35;;;;;;;21.11;83.30;99100.38;8366234;28;20036;-61
2023/08/01 08:58:48;;;;;;;6.00;2.88;;;;;;;21.23;82.43;99095.69;8367880;28;20457;-60
2023/08/01 09:02:48;;;;;;;6.47;2.75;;;;;;;21.31;82.17;99098.88;8363556;28;20060;-61
2023/08/01 09:06:50;;;;;;;7.72;3.42;;;;;;;21.13;81.69;99109.19;8365932;28;20040;-61
2023/08/01 09:10:51;;;;;;;15.75;3.00;;;;;;;21.37;82.06;99119.06;8361715;28;20098;-59
2023/08/01 09:14:56;;;;;;;5.28;2.53;;;;;;;21.55;81.33;99121.63;8363190;28;20037;-60
2023/08/01 09:18:56;;;;;;;6.78;2.08;;;;;;;21.59;79.77;99113.72;8360146;28;20041;-61
2023/08/01 09:22:56;;;;;;;5.85;2.30;;;;;;;22.03;80.26;99112.94;8362296;28;20063;-61
2023/08/01 09:27:04;;;;;;;6.53;3.03;;;;;;;22.48;76.50;99117.28;8366656;28;20041;-61
2023/08/01 09:31:05;;;;;;;6.22;2.30;;;;;;;22.36;75.26;99119.31;8363702;28;20490;-60
2023/08/01 09:35:06;;;;;;;3.95;2.08;;;;;;;22.31;76.53;99115.63;8365293;28;20107;-59
2023/08/01 09:39:06;;;;;;;6.50;2.42;;;;;;;21.93;77.18;99119.09;8365316;28;20048;-59
2023/08/01 09:43:06;;;;;;;8.75;2.38;;;;;;;21.83;79.11;99121.66;8367163;28;20049;-59
2023/08/01 09:47:07;;;;;;;6.10;2.70;;;;;;;22.62;78.96;99113.13;8366804;28;20430;-59
2023/08/01 09:51:14;;;;;;;5.18;2.42;;;;;;;22.31;76.71;99108.19;8362005;28;20048;-60
2023/08/01 09:55:14;;;;;;;10.52;2.97;;;;;;;22.50;77.01;99109.63;8368043;28;20098;-59
2023/08/01 09:59:20;;;;;;;4.38;2.47;;;;;;;23.86;71.43;99108.69;8366636;28;20094;-59
2023/08/01 10:03:21;;;;;;;6.30;2.38;;;;;;;23.74;73.32;99105.25;8364127;28;20139;-60
2023/08/01 10:07:26;;;;;;;6.18;2.17;;;;;;;24.28;67.79;99106.94;8365351;28;20090;-60
2023/08/01 10:11:30;;;;;;;4.63;2.28;;;;;;;25.58;65.63;99113.31;8364790;28;20041;-59
2023/08/01 10:15:31;;;;;;;14.18;1.63;;;;;;;26.59;60.26;99112.38;8366260;28;20110;-59
2023/08/01 10:19:33;;;;;;;10.90;1.83;;;;;;;27.16;60.33;99116.75;8363537;28;20037;-60
2023/08/01 10:23:34;;;;;;;12.80;2.00;;;;;;;28.05;58.86;99123.03;8366313;28;20076;-59
2023/08/01 10:27:36;;;;;;;4.53;1.67;;;;;;;28.09;57.05;99129.72;8364274;28;20043;-59
2023/08/01 10:31:36;;;;;;;2.75;1.65;;;;;;;27.94;56.69;99115.91;8364425;28;20040;-59
2023/08/01 10:35:38;;;;;;;6.68;1.90;;;;;;;26.95;58.26;99112.38;8360803;28;20087;-58
2023/08/01 10:39:39;;;;;;;4.88;1.52;;;;;;;26.10;61.33;99121.53;8360857;28;20502;-60
2023/08/01 10:43:39;;;;;;;23.23;2.38;;;;;;;24.82;62.01;99108.47;8313390;28;20612;-60
2023/08/01 10:47:40;;;;;;;1.75;1.15;;;;;;;25.83;59.58;99105.06;8357541;28;20040;-60
2023/08/01 10:51:40;;;;;;;4.68;1.85;;;;;;;26.86;58.17;99111.28;8365749;28;20052;-61
2023/08/01 10:55:43;;;;;;;167.90;19.52;;;;;;;27.51;56.37;99105.56;8371927;28;20126;-61
2023/08/01 10:59:44;;;;;;;5.00;1.40;;;;;;;28.41;53.58;99110.56;8362163;28;20047;-61
2023/08/01 11:03:45;;;;;;;3.75;1.13;;;;;;;28.84;51.79;99115.22;8367702;28;20041;-61
2023/08/01 11:07:55;;;;;;;9.52;1.85;;;;;;;27.78;54.21;99130.97;8371522;28;20132;-61
2023/08/01 11:11:59;;;;;;;5.22;1.42;;;;;;;27.80;55.87;99132.34;8366529;28;20044;-60
2023/08/01 11:15:59;;;;;;;5.10;2.33;;;;;;;27.84;54.75;99138.19;8373390;28;20135;-61
2023/08/01 11:20:02;;;;;;;8.00;2.08;;;;;;;25.11;60.67;99122.75;8363351;28;20033;-60
2023/08/01 11:24:06;;;;;;;6.45;1.73;;;;;;;24.72;62.73;99127.75;8367464;28;20406;-61
2023/08/01 11:28:10;;;;;;;3.95;1.55;;;;;;;23.97;63.09;99143.66;8365175;28;20425;-61
2023/08/01 11:32:11;;;;;;;11.85;2.30;;;;;;;22.98;67.99;99162.19;8367161;28;20037;-61
2023/08/01 11:36:12;;;;;;;6.90;1.80;;;;;;;21.39;85.05;99166.41;8370637;28;20521;-60
2023/08/01 11:40:12;;;;;;;11.05;1.83;;;;;;;22.90;84.64;99159.00;8368011;28;20644;-60
2023/08/01 11:44:13;;;;;;;228.35;19.50;;;;;;;23.16;78.83;99155.56;8369774;28;20250;-60
2023/08/01 11:48:13;;;;;;;23.70;2.55;;;;;;;22.99;77.15;99155.59;8368888;28;20036;-61
2023/08/01 11:52:29;;;;;;;3.85;1.63;;;;;;;22.98;77.58;99148.41;8355928;28;20040;-61
2023/08/01 11:56:31;;;;;;;5.28;1.40;;;;;;;23.48;74.89;99148.28;8348936;28;20457;-61
2023/08/01 12:00:31;;;;;;;4.45;1.38;;;;;;;23.34;73.04;99148.91;8368723;28;20483;-59
2023/08/01 12:04:32;;;;;;;4.53;1.48;;;;;;;23.11;74.63;99139.75;8368006;28;20406;-61
2023/08/01 12:08:32;;;;;;;8.85;1.52;;;;;;;23.03;74.94;99136.63;8348888;28;20032;-61
2023/08/01 12:12:44;;;;;;;4.43;1.65;;;;;;;22.63;73.56;99145.09;8363100;28;20111;-61
2023/08/01 12:16:46;;;;;;;6.78;1.48;;;;;;;22.39;76.21;99159.28;8365154;28;20041;-61
2023/08/01 12:20:47;;;;;;;852.75;121.13;;;;;;;22.35;79.08;99158.94;8362870;28;20032;-59
2023/08/01 12:24:47;;;;;;;14.85;3.35;;;;;;;22.53;78.77;99164.22;8364200;28;20170;-59
2023/08/01 12:28:48;;;;;;;6.35;1.67;;;;;;;22.50;75.87;99159.22;8367051;28;20143;-60
2023/08/01 12:32:48;;;;;;;157.18;16.08;;;;;;;22.56;75.87;99158.22;8364151;28;20144;-60
2023/08/01 12:36:48;;;;;;;156.45;15.93;;;;;;;22.45;76.88;99155.53;8366964;28;20501;-60
2023/08/01 12:40:49;;;;;;;17.33;3.13;;;;;;;22.42;77.40;99156.84;8365688;28;20421;-59
2023/08/01 12:44:50;;;;;;;2.08;0.80;;;;;;;22.61;76.93;99166.59;8367611;28;20068;-59
2023/08/01 12:48:50;;;;;;;91.90;10.45;;;;;;;22.85;73.84;99173.59;8362678;28;20075;-60
2023/08/01 12:52:50;;;;;;;5.55;1.35;;;;;;;23.24;72.64;99171.69;8364952;28;20492;-59
2023/08/01 12:56:51;;;;;;;20.20;2.97;;;;;;;23.45;69.00;99175.56;8365775;28;20160;-59
2023/08/01 13:00:52;;;;;;;95.10;9.95;;;;;;;23.53;68.80;99166.81;8363275;28;20181;-59
2023/08/01 13:04:52;;;;;;;80.53;9.13;;;;;;;23.46;69.25;99174.47;8366358;28;20041;-59
2023/08/01 13:08:53;;;;;;;4.50;0.82;;;;;;;23.62;67.47;99162.50;8364273;28;20040;-59
2023/08/01 13:12:53;;;;;;;35.40;3.80;;;;;;;23.63;67.71;99159.50;8366601;28;20470;-60
2023/08/01 13:16:53;;;;;;;7.35;1.10;;;;;;;23.54;65.93;99146.44;8365797;28;20481;-60
2023/08/01 13:20:56;;;;;;;3.45;0.90;;;;;;;23.33;65.69;99159.13;8364439;28;20079;-59
2023/08/01 13:24:57;;;;;;;4.18;0.80;;;;;;;23.30;66.03;99151.38;8365943;28;20040;-60
2023/08/01 13:28:58;;;;;;;4.10;1.10;;;;;;;23.46;67.58;99163.44;8367418;28;20064;-60
2023/08/01 13:33:00;;;;;;;2.08;1.13;;;;;;;23.51;66.71;99160.75;8345990;28;20391;-59
2023/08/01 13:37:00;;;;;;;3.15;1.27;;;;;;;23.82;66.01;99173.81;8365652;28;20044;-59
2023/08/01 13:41:01;;;;;;;7.82;1.30;;;;;;;23.37;66.63;99181.50;8365994;28;20037;-60
2023/08/01 13:45:01;;;;;;;1.33;0.98;;;;;;;23.01;68.24;99181.00;8365291;28;20383;-58
2023/08/01 13:49:02;;;;;;;7.80;1.50;;;;;;;22.48;69.11;99182.56;8368993;28;20036;-58
2023/08/01 13:53:02;;;;;;;4.32;1.73;;;;;;;22.24;75.85;99192.91;8366689;28;20512;-58
2023/08/01 13:57:03;;;;;;;11.75;2.10;;;;;;;21.67;81.50;99224.19;8363279;28;20588;-58
2023/08/01 14:01:06;;;;;;;4.75;1.40;;;;;;;20.81;81.17;99228.78;8362843;28;20051;-59
2023/08/01 14:05:08;;;;;;;8.83;1.83;;;;;;;20.38;85.96;99239.22;8365487;28;20049;-58
2023/08/01 14:09:09;;;;;;;3.58;1.63;;;;;;;20.20;90.77;99231.03;8366608;28;20098;-58
2023/08/01 14:13:09;;;;;;;5.82;1.77;;;;;;;20.66;87.86;99214.69;8361305;28;20045;-59
2023/08/01 14:17:10;;;;;;;6.63;1.70;;;;;;;20.98;87.98;99221.56;8366226;28;20041;-60
2023/08/01 14:21:10;;;;;;;3.05;1.23;;;;;;;21.44;83.78;99213.28;8361333;28;20537;-59
2023/08/01 14:25:10;;;;;;;5.57;1.60;;;;;;;21.88;81.94;99220.81;8371027;28;20365;-59
2023/08/01 14:29:11;;;;;;;4.68;1.33;;;;;;;22.21;80.34;99215.41;8370241;28;20071;-59
2023/08/01 14:33:12;;;;;;;5.57;1.23;;;;;;;22.11;76.57;99215.19;8370017;28;20156;-59
2023/08/01 14:37:12;;;;;;;4.97;1.45;;;;;;;22.01;76.29;99220.53;8373739;28;20065;-57
2023/08/01 14:41:14;;;;;;;4.32;1.00;;;;;;;21.91;76.46;99212.06;8372048;28;20118;-59
2023/08/01 14:45:15;;;;;;;5.57;1.50;;;;;;;21.80;76.06;99218.44;8371121;28;20036;-59
2023/08/01 14:49:16;;;;;;;8.73;1.73;;;;;;;21.87;74.50;99212.81;8367501;28;20029;-59
2023/08/01 14:53:16;;;;;;;4.35;1.33;;;;;;;22.06;72.69;99231.66;8372598;28;20126;-58
2023/08/01 14:57:17;;;;;;;3.13;1.17;;;;;;;21.96;72.55;99233.38;8371475;28;20124;-58
2023/08/01 15:01:18;;;;;;;3.50;1.02;;;;;;;21.84;73.58;99236.16;8367697;28;20524;-58
2023/08/01 15:05:19;;;;;;;3.35;1.10;;;;;;;21.75;74.59;99240.38;8370914;28;20097;-58
2023/08/01 15:09:19;;;;;;;5.97;0.90;;;;;;;21.49;77.46;99249.13;8368955;28;20379;-58
2023/08/01 15:13:19;;;;;;;2.08;1.10;;;;;;;21.40;78.54;99255.25;8370917;28;20039;-59
2023/08/01 15:17:20;;;;;;;3.20;1.27;;;;;;;21.52;79.89;99258.78;8367656;28;20401;-58
2023/08/01 15:21:22;;;;;;;6.25;1.13;;;;;;;21.34;80.11;99257.00;8367621;28;20029;-58
2023/08/01 15:25:22;;;;;;;3.78;0.98;;;;;;;21.31;81.50;99246.50;8370687;28;20415;-58
2023/08/01 15:29:23;;;;;;;5.30;1.10;;;;;;;21.24;82.32;99263.13;8368949;28;20473;-58
2023/08/01 15:33:23;;;;;;;4.38;1.30;;;;;;;21.01;83.17;99262.28;8366377;28;20047;-58
2023/08/01 15:37:24;;;;;;;4.22;1.23;;;;;;;20.98;81.57;99257.28;8369132;28;20037;-58
2023/08/01 15:41:27;;;;;;;2.55;0.80;;;;;;;21.05;77.17;99241.50;8364657;28;20064;-58
2023/08/01 15:45:28;;;;;;;2.25;0.80;;;;;;;21.06;75.22;99248.66;8370101;28;20044;-59
2023/08/01 15:49:28;;;;;;;3.15;0.70;;;;;;;21.23;73.23;99255.94;8366288;28;20075;-59
2023/08/01 15:53:28;;;;;;;2.47;0.75;;;;;;;21.69;70.80;99249.56;8368636;28;20040;-60
2023/08/01 15:57:29;;;;;;;4.13;0.80;;;;;;;21.69;69.63;99249.56;8371902;28;20032;-59
2023/08/01 16:01:29;;;;;;;1.70;0.77;;;;;;;21.77;70.13;99268.47;8366360;28;20040;-60
2023/08/01 16:05:32;;;;;;;2.72;0.85;;;;;;;21.82;71.18;99271.34;8369292;28;20128;-60
2023/08/01 16:09:32;;;;;;;7.60;0.90;;;;;;;21.74;71.41;99270.88;8368843;28;20046;-60
2023/08/01 16:13:33;;;;;;;5.85;1.63;;;;;;;21.87;75.56;99267.84;8368197;28;20044;-60
2023/08/01 16:17:33;;;;;;;3.65;1.00;;;;;;;21.92;76.22;99266.03;8367795;28;20581;-60
2023/08/01 16:21:34;;;;;;;2.47;0.98;;;;;;;21.84;77.97;99274.69;8364163;28;20667;-60
2023/08/01 16:25:34;;;;;;;8.82;1.20;;;;;;;21.57;78.74;99275.41;8362720;28;20293;-60
2023/08/01 16:29:35;;;;;;;3.28;1.30;;;;;;;21.49;79.71;99265.63;8366743;28;20033;-60
2023/08/01 16:33:35;;;;;;;5.88;1.00;;;;;;;21.43;80.53;99277.56;8365980;28;20083;-60
2023/08/01 16:37:36;;;;;;;4.97;1.27;;;;;;;21.13;81.42;99287.84;8364466;28;20041;-60
2023/08/01 16:41:36;;;;;;;4.30;1.42;;;;;;;21.03;82.34;99282.97;8352002;28;20041;-59
2023/08/01 16:45:36;;;;;;;3.70;1.42;;;;;;;20.85;82.51;99284.94;8368114;28;20139;-59
2023/08/01 16:49:37;;;;;;;10.77;1.50;;;;;;;20.81;83.05;99278.25;8359649;28;20033;-59
2023/08/01 16:53:37;;;;;;;4.38;1.40;;;;;;;20.77;83.42;99299.84;8368153;28;20185;-59
2023/08/01 16:57:38;;;;;;;5.40;1.45;;;;;;;20.56;85.99;99311.38;8363894;28;20460;-58
2023/08/01 17:01:38;;;;;;;3.72;1.23;;;;;;;20.10;89.17;99313.88;8362428;28;20068;-58
2023/08/01 17:05:39;;;;;;;6.18;1.77;;;;;;;19.84;90.42;99329.84;8366677;28;20489;-58
2023/08/01 17:09:39;;;;;;;3.47;1.73;;;;;;;19.50;96.65;99336.75;8367181;28;20029;-58
2023/08/01 17:13:40;;;;;;;3.53;1.33;;;;;;;19.00;98.34;99335.91;8364583;28;20045;-58
2023/08/01 17:17:40;;;;;;;8.40;1.50;;;;;;;18.88;100.00;99334.97;8366127;28;20032;-59
2023/08/01 17:21:41;;;;;;;8.55;1.48;;;;;;;18.97;100.00;99336.38;8365216;28;20041;-60
2023/08/01 17:25:42;;;;;;;6.60;1.58;;;;;;;19.03;100.00;99343.69;8366533;28;20068;-58
2023/08/01 17:29:42;;;;;;;9.70;1.98;;;;;;;19.09;100.00;99350.19;8362605;28;20044;-58
2023/08/01 17:33:44;;;;;;;3.22;1.55;;;;;;;19.03;100.00;99360.13;8358605;28;20396;-58
2023/08/01 17:37:45;;;;;;;8.80;2.38;;;;;;;19.07;100.00;99361.38;8363358;28;20691;-58
2023/08/01 17:41:45;;;;;;;5.43;1.45;;;;;;;19.13;100.00;99362.38;8364724;28;20064;-58
2023/08/01 17:45:46;;;;;;;5.40;1.60;;;;;;;19.17;100.00;99360.88;8366240;28;20072;-58
2023/08/01 17:49:46;;;;;;;6.18;1.30;;;;;;;19.21;100.00;99349.22;8349240;28;20033;-58
2023/08/01 17:53:47;;;;;;;8.13;1.48;;;;;;;19.21;100.00;99354.72;8363478;28;20144;-58
2023/08/01 17:57:47;;;;;;;4.15;1.40;;;;;;;19.24;100.00;99356.16;8359694;28;20059;-59
2023/08/01 18:01:48;;;;;;;4.55;1.55;;;;;;;19.21;100.00;99357.44;8370299;28;20186;-58
2023/08/01 18:05:48;;;;;;;3.13;1.30;;;;;;;19.27;100.00;99356.59;8371286;28;20799;-58
2023/08/01 18:09:49;;;;;;;6.93;1.38;;;;;;;19.24;99.49;99365.22;8372604;28;20402;-58
2023/08/01 18:13:49;;;;;;;6.85;1.48;;;;;;;19.30;99.67;99364.34;8370190;28;20106;-60
2023/08/01 18:17:50;;;;;;;4.90;1.40;;;;;;;19.29;100.00;99365.44;8371379;28;20033;-60
2023/08/01 18:21:52;;;;;;;4.72;1.90;;;;;;;19.19;100.00;99370.53;8370057;28;20490;-60
2023/08/01 18:25:53;;;;;;;7.40;3.17;;;;;;;19.16;100.00;99370.16;8371155;28;20049;-60
2023/08/01 18:29:53;;;;;;;4.40;1.65;;;;;;;19.11;100.00;99370.81;8370116;28;20106;-59
2023/08/01 18:33:54;;;;;;;3.40;1.48;;;;;;;19.09;100.00;99367.47;8370156;28;20040;-58
2023/08/01 18:37:54;;;;;;;2.30;1.40;;;;;;;19.14;100.00;99383.22;8370641;28;20398;-58
2023/08/01 18:41:55;;;;;;;5.57;1.45;;;;;;;19.03;100.00;99393.00;8369099;28;20066;-60